sensor_id;sensor_type;location;lat;lon;timestamp;pressure;altitude;pressure_sealevel;temperature
41654;BMP280;30790;52.030;7.110;2022-10-18T00:00:42;101834.56;;;20.28
41654;BMP280;30790;52.030;7.110;2022-10-18T00:03:08;101829.31;;;20.27
41654;BMP280;30790;52.030;7.110;2022-10-18T00:05:33;101825.75;;;20.26
41654;BMP280;30790;52.030;7.110;2022-10-18T00:07:59;101823.25;;;20.25
41654;BMP280;30790;52.030;7.110;2022-10-18T00:10:25;101831.63;;;20.30
41654;BMP280;30790;52.030;7.110;2022-10-18T00:12:51;101842.31;;;20.31
41654;BMP280;30790;52.030;7.110;2022-10-18T00:15:16;101836.47;;;20.28
41654;BMP280;30790;52.030;7.110;2022-10-18T00:17:42;101833.09;;;20.26
41654;BMP280;30790;52.030;7.110;2022-10-18T00:20:08;101832.69;;;20.29
41654;BMP280;30790;52.030;7.110;2022-10-18T00:22:38;101822.19;;;20.26
41654;BMP280;30790;52.030;7.110;2022-10-18T00:25:04;101825.56;;;20.28
41654;BMP280;30790;52.030;7.110;2022-10-18T00:27:31;101815.06;;;20.25
41654;BMP280;30790;52.030;7.110;2022-10-18T00:29:56;101821.13;;;20.27
41654;BMP280;30790;52.030;7.110;2022-10-18T00:32:22;101820.09;;;20.28
41654;BMP280;30790;52.030;7.110;2022-10-18T00:34:48;101816.72;;;20.26
41654;BMP280;30790;52.030;7.110;2022-10-18T00:37:13;101810.28;;;20.20
41654;BMP280;30790;52.030;7.110;2022-10-18T00:39:38;101814.44;;;20.23
41654;BMP280;30790;52.030;7.110;2022-10-18T00:42:04;101804.38;;;20.23
41654;BMP280;30790;52.030;7.110;2022-10-18T00:46:59;101815.69;;;20.27
41654;BMP280;30790;52.030;7.110;2022-10-18T00:49:27;101815.91;;;20.25
41654;BMP280;30790;52.030;7.110;2022-10-18T00:52:00;101818.63;;;20.25
41654;BMP280;30790;52.030;7.110;2022-10-18T00:54:29;101809.81;;;20.23
41654;BMP280;30790;52.030;7.110;2022-10-18T00:56:55;101808.56;;;20.26
41654;BMP280;30790;52.030;7.110;2022-10-18T00:59:20;101812.94;;;20.27
41654;BMP280;30790;52.030;7.110;2022-10-18T01:01:46;101806.03;;;20.24
41654;BMP280;30790;52.030;7.110;2022-10-18T01:04:13;101808.56;;;20.26
41654;BMP280;30790;52.030;7.110;2022-10-18T01:06:50;101803.16;;;20.19
41654;BMP280;30790;52.030;7.110;2022-10-18T01:09:29;101807.94;;;20.24
41654;BMP280;30790;52.030;7.110;2022-10-18T01:12:23;101805.44;;;20.22
41654;BMP280;30790;52.030;7.110;2022-10-18T01:15:02;101810.66;;;20.24
41654;BMP280;30790;52.030;7.110;2022-10-18T01:17:39;101813.38;;;20.24
41654;BMP280;30790;52.030;7.110;2022-10-18T01:20:22;101807.72;;;20.25
41654;BMP280;30790;52.030;7.110;2022-10-18T01:33:24;101810.22;;;20.27
41654;BMP280;30790;52.030;7.110;2022-10-18T01:36:03;101806.03;;;20.24
41654;BMP280;30790;52.030;7.110;2022-10-18T01:38:32;101806.88;;;20.25
41654;BMP280;30790;52.030;7.110;2022-10-18T01:40:59;101787.22;;;20.16
41654;BMP280;30790;52.030;7.110;2022-10-18T01:43:27;101805.00;;;20.25
41654;BMP280;30790;52.030;7.110;2022-10-18T01:45:54;101775.75;;;20.08
41654;BMP280;30790;52.030;7.110;2022-10-18T01:48:21;101800.81;;;20.23
41654;BMP280;30790;52.030;7.110;2022-10-18T01:50:46;101778.69;;;20.06
41654;BMP280;30790;52.030;7.110;2022-10-18T01:53:23;101801.66;;;20.23
41654;BMP280;30790;52.030;7.110;2022-10-18T01:56:06;101803.53;;;20.23
41654;BMP280;30790;52.030;7.110;2022-10-18T02:01:38;101802.69;;;20.22
41654;BMP280;30790;52.030;7.110;2022-10-18T02:04:18;101805.66;;;20.21
41654;BMP280;30790;52.030;7.110;2022-10-18T02:06:50;101808.16;;;20.22
41654;BMP280;30790;52.030;7.110;2022-10-18T02:09:27;101805.66;;;20.21
41654;BMP280;30790;52.030;7.110;2022-10-18T02:11:54;101800.19;;;20.21
41654;BMP280;30790;52.030;7.110;2022-10-18T02:14:22;101802.94;;;20.21
41654;BMP280;30790;52.030;7.110;2022-10-18T02:16:51;101811.50;;;20.24
41654;BMP280;30790;52.030;7.110;2022-10-18T02:19:23;101800.19;;;20.21
41654;BMP280;30790;52.030;7.110;2022-10-18T02:21:50;101791.41;;;20.19
41654;BMP280;30790;52.030;7.110;2022-10-18T02:24:18;101796.63;;;20.20
41654;BMP280;30790;52.030;7.110;2022-10-18T02:26:45;101794.75;;;20.21
41654;BMP280;30790;52.030;7.110;2022-10-18T02:29:11;101795.38;;;20.23
41654;BMP280;30790;52.030;7.110;2022-10-18T02:31:42;101802.69;;;20.22
41654;BMP280;30790;52.030;7.110;2022-10-18T02:34:36;101789.28;;;20.21
41654;BMP280;30790;52.030;7.110;2022-10-18T02:37:00;101801.03;;;20.21
41654;BMP280;30790;52.030;7.110;2022-10-18T02:39:29;101790.97;;;20.22
41654;BMP280;30790;52.030;7.110;2022-10-18T02:41:57;101786.78;;;20.19
41654;BMP280;30790;52.030;7.110;2022-10-18T02:44:22;101794.75;;;20.21
41654;BMP280;30790;52.030;7.110;2022-10-18T02:46:48;101805.66;;;20.21
41654;BMP280;30790;52.030;7.110;2022-10-18T02:49:13;101802.31;;;20.19
41654;BMP280;30790;52.030;7.110;2022-10-18T02:51:38;101806.94;;;20.18
41654;BMP280;30790;52.030;7.110;2022-10-18T02:54:04;101803.59;;;20.16
41654;BMP280;30790;52.030;7.110;2022-10-18T02:56:29;101808.19;;;20.16
41654;BMP280;30790;52.030;7.110;2022-10-18T02:58:55;101803.16;;;20.19
41654;BMP280;30790;52.030;7.110;2022-10-18T03:01:20;101797.91;;;20.18
41654;BMP280;30790;52.030;7.110;2022-10-18T03:03:45;101795.81;;;20.20
41654;BMP280;30790;52.030;7.110;2022-10-18T03:06:11;101800.19;;;20.21
41654;BMP280;30790;52.030;7.110;2022-10-18T03:08:36;101804.59;;;20.22
41654;BMP280;30790;52.030;7.110;2022-10-18T03:11:02;101799.38;;;20.20
41654;BMP280;30790;52.030;7.110;2022-10-18T03:13:27;101794.97;;;20.19
41654;BMP280;30790;52.030;7.110;2022-10-18T03:15:52;101803.16;;;20.19
41654;BMP280;30790;52.030;7.110;2022-10-18T03:18:17;101809.44;;;20.20
41654;BMP280;30790;52.030;7.110;2022-10-18T03:20:43;101795.19;;;20.18
41654;BMP280;30790;52.030;7.110;2022-10-18T03:23:08;101795.63;;;20.15
41654;BMP280;30790;52.030;7.110;2022-10-18T03:25:33;101766.97;;;20.05
41654;BMP280;30790;52.030;7.110;2022-10-18T03:27:59;101795.19;;;20.18
41654;BMP280;30790;52.030;7.110;2022-10-18T03:30:25;101795.63;;;20.15
41654;BMP280;30790;52.030;7.110;2022-10-18T03:32:50;101797.69;;;20.19
41654;BMP280;30790;52.030;7.110;2022-10-18T03:35:15;101800.63;;;20.18
41654;BMP280;30790;52.030;7.110;2022-10-18T03:37:41;101790.78;;;20.17
41654;BMP280;30790;52.030;7.110;2022-10-18T03:40:07;101794.13;;;20.19
41654;BMP280;30790;52.030;7.110;2022-10-18T03:42:32;101786.00;;;20.12
41654;BMP280;30790;52.030;7.110;2022-10-18T03:44:58;101776.53;;;20.15
41654;BMP280;30790;52.030;7.110;2022-10-18T03:47:23;101776.31;;;20.16
41654;BMP280;30790;52.030;7.110;2022-10-18T03:49:48;101785.34;;;20.17
41654;BMP280;30790;52.030;7.110;2022-10-18T03:52:13;101788.47;;;20.20
41654;BMP280;30790;52.030;7.110;2022-10-18T03:54:39;101773.81;;;20.15
41654;BMP280;30790;52.030;7.110;2022-10-18T03:57:04;101767.53;;;20.14
41654;BMP280;30790;52.030;7.110;2022-10-18T03:59:29;101777.59;;;20.14
41654;BMP280;30790;52.030;7.110;2022-10-18T04:01:54;101779.28;;;20.15
41654;BMP280;30790;52.030;7.110;2022-10-18T04:04:20;101790.78;;;20.17
41654;BMP280;30790;52.030;7.110;2022-10-18T04:06:45;101793.97;;;20.14
41654;BMP280;30790;52.030;7.110;2022-10-18T04:09:10;101784.31;;;20.11
41654;BMP280;30790;52.030;7.110;2022-10-18T04:11:36;101794.19;;;20.12
41654;BMP280;30790;52.030;7.110;2022-10-18T04:14:01;101775.16;;;20.05
41654;BMP280;30790;52.030;7.110;2022-10-18T04:16:26;101769.69;;;20.05
41654;BMP280;30790;52.030;7.110;2022-10-18T04:18:52;101772.41;;;20.05
41654;BMP280;30790;52.030;7.110;2022-10-18T04:21:17;101793.28;;;20.18
41654;BMP280;30790;52.030;7.110;2022-10-18T04:23:42;101781.22;;;20.08
41654;BMP280;30790;52.030;7.110;2022-10-18T04:26:08;101788.09;;;20.10
41654;BMP280;30790;52.030;7.110;2022-10-18T04:28:34;101798.56;;;20.13
41654;BMP280;30790;52.030;7.110;2022-10-18T04:30:59;101808.81;;;20.18
41654;BMP280;30790;52.030;7.110;2022-10-18T04:33:25;101797.28;;;20.16
41654;BMP280;30790;52.030;7.110;2022-10-18T04:35:51;101808.81;;;20.18
41654;BMP280;30790;52.030;7.110;2022-10-18T04:38:17;101802.97;;;20.14
41654;BMP280;30790;52.030;7.110;2022-10-18T04:40:42;101811.53;;;20.18
41654;BMP280;30790;52.030;7.110;2022-10-18T04:43:08;101812.81;;;20.15
41654;BMP280;30790;52.030;7.110;2022-10-18T04:45:33;101810.53;;;20.12
41654;BMP280;30790;52.030;7.110;2022-10-18T04:47:59;101817.44;;;20.15
41654;BMP280;30790;52.030;7.110;2022-10-18T04:50:24;101817.00;;;20.18
41654;BMP280;30790;52.030;7.110;2022-10-18T04:52:49;101813.47;;;20.11
41654;BMP280;30790;52.030;7.110;2022-10-18T04:55:15;101818.72;;;20.12
41654;BMP280;30790;52.030;7.110;2022-10-18T04:57:40;101815.75;;;20.14
41654;BMP280;30790;52.030;7.110;2022-10-18T05:00:06;101824.56;;;20.16
41654;BMP280;30790;52.030;7.110;2022-10-18T05:02:31;101826.66;;;20.14
41654;BMP280;30790;52.030;7.110;2022-10-18T05:04:56;101815.38;;;20.10
41654;BMP280;30790;52.030;7.110;2022-10-18T05:07:22;101814.09;;;20.13
41654;BMP280;30790;52.030;7.110;2022-10-18T05:09:47;101820.16;;;20.15
41654;BMP280;30790;52.030;7.110;2022-10-18T05:12:12;101819.31;;;20.14
41654;BMP280;30790;52.030;7.110;2022-10-18T05:14:37;101820.00;;;20.10
41654;BMP280;30790;52.030;7.110;2022-10-18T05:17:03;101816.22;;;20.11
41654;BMP280;30790;52.030;7.110;2022-10-18T05:19:28;101814.94;;;20.13
41654;BMP280;30790;52.030;7.110;2022-10-18T05:21:53;101808.47;;;20.08
41654;BMP280;30790;52.030;7.110;2022-10-18T05:24:18;101803.63;;;20.10
41654;BMP280;30790;52.030;7.110;2022-10-18T05:26:44;101810.75;;;20.11
41654;BMP280;30790;52.030;7.110;2022-10-18T05:29:09;101805.91;;;20.13
41654;BMP280;30790;52.030;7.110;2022-10-18T05:31:34;101795.28;;;20.04
41654;BMP280;30790;52.030;7.110;2022-10-18T05:33:59;101809.09;;;20.10
41654;BMP280;30790;52.030;7.110;2022-10-18T05:36:26;101800.72;;;20.04
41654;BMP280;30790;52.030;7.110;2022-10-18T05:38:51;101794.22;;;20.05
41654;BMP280;30790;52.030;7.110;2022-10-18T05:41:17;101818.28;;;20.15
41654;BMP280;30790;52.030;7.110;2022-10-18T05:43:43;101813.03;;;20.14
41654;BMP280;30790;52.030;7.110;2022-10-18T05:46:08;101810.34;;;20.07
41654;BMP280;30790;52.030;7.110;2022-10-18T05:48:34;101816.69;;;20.01
41654;BMP280;30790;52.030;7.110;2022-10-18T05:51:00;101818.28;;;20.15
41654;BMP280;30790;52.030;7.110;2022-10-18T05:53:26;101819.53;;;20.13
41654;BMP280;30790;52.030;7.110;2022-10-18T05:55:51;101814.94;;;20.13
41654;BMP280;30790;52.030;7.110;2022-10-18T05:58:17;101823.31;;;20.12
41654;BMP280;30790;52.030;7.110;2022-10-18T06:00:42;101818.31;;;20.09
41654;BMP280;30790;52.030;7.110;2022-10-18T06:03:07;101830.00;;;20.16
41654;BMP280;30790;52.030;7.110;2022-10-18T06:05:32;101813.25;;;20.12
41654;BMP280;30790;52.030;7.110;2022-10-18T06:07:58;101827.94;;;20.11
41654;BMP280;30790;52.030;7.110;2022-10-18T06:10:23;101823.72;;;20.15
41654;BMP280;30790;52.030;7.110;2022-10-18T06:12:49;101823.72;;;20.15
41654;BMP280;30790;52.030;7.110;2022-10-18T06:15:14;101838.41;;;20.14
41654;BMP280;30790;52.030;7.110;2022-10-18T06:17:40;101832.56;;;20.11
41654;BMP280;30790;52.030;7.110;2022-10-18T06:20:05;101836.97;;;20.12
41654;BMP280;30790;52.030;7.110;2022-10-18T06:22:31;101843.03;;;20.14
41654;BMP280;30790;52.030;7.110;2022-10-18T06:24:57;101844.69;;;20.15
41654;BMP280;30790;52.030;7.110;2022-10-18T06:27:22;101845.75;;;20.14
41654;BMP280;30790;52.030;7.110;2022-10-18T06:29:47;101844.69;;;20.15
41654;BMP280;30790;52.030;7.110;2022-10-18T06:32:13;101840.97;;;20.09
41654;BMP280;30790;52.030;7.110;2022-10-18T06:34:38;101848.44;;;20.20
41654;BMP280;30790;52.030;7.110;2022-10-18T06:37:03;101850.31;;;20.20
41654;BMP280;30790;52.030;7.110;2022-10-18T06:39:28;101853.94;;;20.14
41654;BMP280;30790;52.030;7.110;2022-10-18T06:41:54;101869.41;;;20.20
41654;BMP280;30790;52.030;7.110;2022-10-18T06:44:20;101868.97;;;20.23
41654;BMP280;30790;52.030;7.110;2022-10-18T06:46:46;101866.25;;;20.23
41654;BMP280;30790;52.030;7.110;2022-10-18T06:49:12;101886.38;;;20.22
41654;BMP280;30790;52.030;7.110;2022-10-18T06:51:39;101883.25;;;20.18
41654;BMP280;30790;52.030;7.110;2022-10-18T06:54:04;101888.72;;;20.18
41654;BMP280;30790;52.030;7.110;2022-10-18T06:56:30;101886.44;;;20.15
41654;BMP280;30790;52.030;7.110;2022-10-18T06:58:55;101889.97;;;20.16
41654;BMP280;30790;52.030;7.110;2022-10-18T07:01:21;101898.16;;;20.16
41654;BMP280;30790;52.030;7.110;2022-10-18T07:03:47;101902.34;;;20.18
41654;BMP280;30790;52.030;7.110;2022-10-18T07:06:16;101910.94;;;20.22
41654;BMP280;30790;52.030;7.110;2022-10-18T07:08:42;101917.00;;;20.24
41654;BMP280;30790;52.030;7.110;2022-10-18T07:11:13;101921.00;;;20.21
41654;BMP280;30790;52.030;7.110;2022-10-18T07:13:38;101932.72;;;20.22
41654;BMP280;30790;52.030;7.110;2022-10-18T07:16:12;101927.50;;;20.20
41654;BMP280;30790;52.030;7.110;2022-10-18T07:18:40;101922.09;;;20.14
41654;BMP280;30790;52.030;7.110;2022-10-18T07:21:07;101941.97;;;20.27
41654;BMP280;30790;52.030;7.110;2022-10-18T07:23:34;101938.81;;;20.24
41654;BMP280;30790;52.030;7.110;2022-10-18T07:26:00;101930.19;;;20.27
41654;BMP280;30790;52.030;7.110;2022-10-18T07:28:27;101932.31;;;20.25
41654;BMP280;30790;52.030;7.110;2022-10-18T07:30:52;101927.91;;;20.24
41654;BMP280;30790;52.030;7.110;2022-10-18T07:33:17;101931.09;;;20.14
41654;BMP280;30790;52.030;7.110;2022-10-18T07:35:44;101937.34;;;20.21
41654;BMP280;30790;52.030;7.110;2022-10-18T07:38:10;101930.66;;;20.17
41654;BMP280;30790;52.030;7.110;2022-10-18T07:40:35;101942.22;;;20.13
41654;BMP280;30790;52.030;7.110;2022-10-18T07:43:00;101957.13;;;20.10
41654;BMP280;30790;52.030;7.110;2022-10-18T07:45:25;101959.66;;;20.05
41654;BMP280;30790;52.030;7.110;2022-10-18T07:47:57;101976.00;;;20.05
41654;BMP280;30790;52.030;7.110;2022-10-18T07:50:22;101958.38;;;20.08
41654;BMP280;30790;52.030;7.110;2022-10-18T07:52:48;101950.59;;;20.11
41654;BMP280;30790;52.030;7.110;2022-10-18T07:55:13;101961.91;;;20.15
41654;BMP280;30790;52.030;7.110;2022-10-18T07:57:39;101961.28;;;20.13
41654;BMP280;30790;52.030;7.110;2022-10-18T08:00:04;101966.31;;;20.16
41654;BMP280;30790;52.030;7.110;2022-10-18T08:02:30;101958.75;;;20.18
41654;BMP280;30790;52.030;7.110;2022-10-18T08:04:55;101969.34;;;19.68
41654;BMP280;30790;52.030;7.110;2022-10-18T08:07:20;101959.72;;;19.19
41654;BMP280;30790;52.030;7.110;2022-10-18T08:09:46;101981.44;;;19.06
41654;BMP280;30790;52.030;7.110;2022-10-18T08:12:11;101970.13;;;18.96
41654;BMP280;30790;52.030;7.110;2022-10-18T08:14:36;101981.59;;;18.84
41654;BMP280;30790;52.030;7.110;2022-10-18T08:17:01;101976.47;;;18.62
41654;BMP280;30790;52.030;7.110;2022-10-18T08:19:27;101990.38;;;18.80
41654;BMP280;30790;52.030;7.110;2022-10-18T08:21:52;101981.16;;;18.68
41654;BMP280;30790;52.030;7.110;2022-10-18T08:24:17;101976.69;;;18.60
41654;BMP280;30790;52.030;7.110;2022-10-18T08:26:42;101978.84;;;18.71
41654;BMP280;30790;52.030;7.110;2022-10-18T08:29:08;101982.00;;;18.81
41654;BMP280;30790;52.030;7.110;2022-10-18T08:31:34;101972.66;;;19.17
41654;BMP280;30790;52.030;7.110;2022-10-18T08:33:59;101978.53;;;19.40
41654;BMP280;30790;52.030;7.110;2022-10-18T08:36:25;101991.16;;;19.55
41654;BMP280;30790;52.030;7.110;2022-10-18T08:38:50;101972.09;;;19.61
41654;BMP280;30790;52.030;7.110;2022-10-18T08:41:29;101998.47;;;19.87
41654;BMP280;30790;52.030;7.110;2022-10-18T08:44:10;102004.31;;;19.91
41654;BMP280;30790;52.030;7.110;2022-10-18T08:46:41;102009.34;;;20.00
41654;BMP280;30790;52.030;7.110;2022-10-18T08:49:15;102008.72;;;20.05
41654;BMP280;30790;52.030;7.110;2022-10-18T08:51:45;102001.81;;;20.02
41654;BMP280;30790;52.030;7.110;2022-10-18T08:54:14;101997.38;;;20.08
41654;BMP280;30790;52.030;7.110;2022-10-18T08:56:52;102002.84;;;20.08
41654;BMP280;30790;52.030;7.110;2022-10-18T08:59:20;102006.44;;;19.82
41654;BMP280;30790;52.030;7.110;2022-10-18T09:04:55;102002.66;;;19.70
41654;BMP280;30790;52.030;7.110;2022-10-18T09:08:04;102014.59;;;19.69
41654;BMP280;30790;52.030;7.110;2022-10-18T09:14:02;102019.84;;;19.70
41654;BMP280;30790;52.030;7.110;2022-10-18T09:22:12;102034.31;;;19.58
41654;BMP280;30790;52.030;7.110;2022-10-18T09:24:40;102033.47;;;19.57
41654;BMP280;30790;52.030;7.110;2022-10-18T09:27:18;102032.22;;;19.86
41654;BMP280;30790;52.030;7.110;2022-10-18T09:32:44;102011.63;;;20.10
41654;BMP280;30790;52.030;7.110;2022-10-18T09:35:16;102028.81;;;20.11
41654;BMP280;30790;52.030;7.110;2022-10-18T09:37:44;102026.09;;;20.11
41654;BMP280;30790;52.030;7.110;2022-10-18T09:40:20;102023.78;;;20.14
41654;BMP280;30790;52.030;7.110;2022-10-18T09:42:58;102026.28;;;20.16
41654;BMP280;30790;52.030;7.110;2022-10-18T09:45:36;102038.44;;;20.20
41654;BMP280;30790;52.030;7.110;2022-10-18T09:51:11;102046.19;;;20.23
41654;BMP280;30790;52.030;7.110;2022-10-18T09:53:59;102045.97;;;20.24
41654;BMP280;30790;52.030;7.110;2022-10-18T10:01:59;102040.53;;;20.24
41654;BMP280;30790;52.030;7.110;2022-10-18T10:04:25;102038.84;;;20.23
41654;BMP280;30790;52.030;7.110;2022-10-18T10:06:51;102043.03;;;20.26
41654;BMP280;30790;52.030;7.110;2022-10-18T10:09:24;102041.59;;;20.23
41654;BMP280;30790;52.030;7.110;2022-10-18T10:11:50;102048.72;;;20.24
41654;BMP280;30790;52.030;7.110;2022-10-18T10:14:18;102044.53;;;20.22
41654;BMP280;30790;52.030;7.110;2022-10-18T10:16:50;102034.66;;;20.21
41654;BMP280;30790;52.030;7.110;2022-10-18T10:19:31;102036.34;;;20.22
41654;BMP280;30790;52.030;7.110;2022-10-18T10:22:09;102043.47;;;20.23
41654;BMP280;30790;52.030;7.110;2022-10-18T10:24:45;102044.53;;;20.22
41654;BMP280;30790;52.030;7.110;2022-10-18T10:27:18;102043.47;;;20.23
41654;BMP280;30790;52.030;7.110;2022-10-18T10:32:12;102034.66;;;20.21
41654;BMP280;30790;52.030;7.110;2022-10-18T10:34:37;102044.34;;;20.17
41654;BMP280;30790;52.030;7.110;2022-10-18T10:37:30;102034.03;;;20.19
41654;BMP280;30790;52.030;7.110;2022-10-18T10:42:36;102040.13;;;20.21
41654;BMP280;30790;52.030;7.110;2022-10-18T10:45:03;102046.84;;;20.18
41654;BMP280;30790;52.030;7.110;2022-10-18T10:47:31;102041.38;;;20.18
41654;BMP280;30790;52.030;7.110;2022-10-18T10:49:57;102038.03;;;20.16
41654;BMP280;30790;52.030;7.110;2022-10-18T10:52:24;102029.44;;;20.13
41654;BMP280;30790;52.030;7.110;2022-10-18T10:54:53;102043.91;;;20.20
41654;BMP280;30790;52.030;7.110;2022-10-18T10:57:26;102047.91;;;20.17
41654;BMP280;30790;52.030;7.110;2022-10-18T10:59:56;102034.94;;;20.06
41654;BMP280;30790;52.030;7.110;2022-10-18T11:02:31;102039.72;;;20.17
41654;BMP280;30790;52.030;7.110;2022-10-18T11:05:23;102041.38;;;20.18
41654;BMP280;30790;52.030;7.110;2022-10-18T11:07:51;102048.94;;;20.16
41654;BMP280;30790;52.030;7.110;2022-10-18T11:10:22;102055.84;;;20.19
41654;BMP280;30790;52.030;7.110;2022-10-18T11:12:55;102051.47;;;20.18
41654;BMP280;30790;52.030;7.110;2022-10-18T11:15:28;102037.63;;;20.13
41654;BMP280;30790;52.030;7.110;2022-10-18T11:18:17;102050.84;;;20.16
41654;BMP280;30790;52.030;7.110;2022-10-18T11:20:55;102058.19;;;20.15
41654;BMP280;30790;52.030;7.110;2022-10-18T11:23:28;102043.72;;;20.15
41654;BMP280;30790;52.030;7.110;2022-10-18T11:39:09;102042.69;;;20.09
41654;BMP280;30790;52.030;7.110;2022-10-18T11:41:48;102039.72;;;20.11
41654;BMP280;30790;52.030;7.110;2022-10-18T11:44:23;102049.59;;;20.12
41654;BMP280;30790;52.030;7.110;2022-10-18T11:47:09;102038.91;;;20.10
41654;BMP280;30790;52.030;7.110;2022-10-18T11:55:26;102043.50;;;20.10
41654;BMP280;30790;52.030;7.110;2022-10-18T12:00:31;102041.00;;;20.08
41654;BMP280;30790;52.030;7.110;2022-10-18T12:05:43;102037.22;;;20.09
41654;BMP280;30790;52.030;7.110;2022-10-18T12:08:21;102033.03;;;20.06
41654;BMP280;30790;52.030;7.110;2022-10-18T12:10:52;102030.72;;;20.10
41654;BMP280;30790;52.030;7.110;2022-10-18T12:13:33;102032.59;;;20.10
41654;BMP280;30790;52.030;7.110;2022-10-18T12:16:05;102034.09;;;20.05
41654;BMP280;30790;52.030;7.110;2022-10-18T12:18:32;102027.16;;;20.10
41654;BMP280;30790;52.030;7.110;2022-10-18T12:20:59;102025.69;;;20.07
41654;BMP280;30790;52.030;7.110;2022-10-18T12:25:58;102032.59;;;20.10
41654;BMP280;30790;52.030;7.110;2022-10-18T12:31:03;102029.03;;;20.09
41654;BMP280;30790;52.030;7.110;2022-10-18T12:33:35;102031.38;;;20.05
41654;BMP280;30790;52.030;7.110;2022-10-18T12:39:07;102021.69;;;20.10
41654;BMP280;30790;52.030;7.110;2022-10-18T12:41:35;102019.19;;;20.08
41654;BMP280;30790;52.030;7.110;2022-10-18T12:44:04;102017.94;;;20.11
41654;BMP280;30790;52.030;7.110;2022-10-18T12:46:49;102012.47;;;20.11
41654;BMP280;30790;52.030;7.110;2022-10-18T12:49:20;102011.63;;;20.10
41654;BMP280;30790;52.030;7.110;2022-10-18T12:51:53;102017.50;;;20.14
41654;BMP280;30790;52.030;7.110;2022-10-18T12:54:29;102017.94;;;20.11
41654;BMP280;30790;52.030;7.110;2022-10-18T12:56:56;102016.88;;;20.12
41654;BMP280;30790;52.030;7.110;2022-10-18T12:59:39;102025.66;;;20.14
41654;BMP280;30790;52.030;7.110;2022-10-18T13:09:26;102005.34;;;20.10
41654;BMP280;30790;52.030;7.110;2022-10-18T13:12:27;102011.41;;;20.18
41654;BMP280;30790;52.030;7.110;2022-10-18T13:15:00;102019.38;;;20.20
41654;BMP280;30790;52.030;7.110;2022-10-18T13:17:32;102017.03;;;20.23
41654;BMP280;30790;52.030;7.110;2022-10-18T13:20:27;102028.34;;;20.27
41654;BMP280;30790;52.030;7.110;2022-10-18T13:30:52;102021.00;;;20.34
41654;BMP280;30790;52.030;7.110;2022-10-18T13:36:05;102021.22;;;20.39
41654;BMP280;30790;52.030;7.110;2022-10-18T13:38:46;102020.19;;;20.40
41654;BMP280;30790;52.030;7.110;2022-10-18T13:41:18;102014.72;;;20.40
41654;BMP280;30790;52.030;7.110;2022-10-18T13:54:53;102005.69;;;20.46
41654;BMP280;30790;52.030;7.110;2022-10-18T14:01:10;102019.50;;;20.51
41654;BMP280;30790;52.030;7.110;2022-10-18T14:03:58;102015.72;;;20.52
41654;BMP280;30790;52.030;7.110;2022-10-18T14:06:35;102014.03;;;20.51
41654;BMP280;30790;52.030;7.110;2022-10-18T14:11:41;102023.91;;;20.52
41654;BMP280;30790;52.030;7.110;2022-10-18T14:14:41;102015.72;;;20.52
41654;BMP280;30790;52.030;7.110;2022-10-18T14:19:43;102027.91;;;20.50
41654;BMP280;30790;52.030;7.110;2022-10-18T14:22:20;102024.34;;;20.49
41654;BMP280;30790;52.030;7.110;2022-10-18T14:24:57;102030.63;;;20.50
41654;BMP280;30790;52.030;7.110;2022-10-18T14:27:25;102027.50;;;20.46
41654;BMP280;30790;52.030;7.110;2022-10-18T14:32:45;102028.56;;;20.45
41654;BMP280;30790;52.030;7.110;2022-10-18T14:35:22;102032.94;;;20.46
41654;BMP280;30790;52.030;7.110;2022-10-18T14:37:50;102030.22;;;20.46
41654;BMP280;30790;52.030;7.110;2022-10-18T14:40:35;102027.09;;;20.43
41654;BMP280;30790;52.030;7.110;2022-10-18T14:43:11;102018.28;;;20.41
41654;BMP280;30790;52.030;7.110;2022-10-18T14:45:37;102031.09;;;20.40
41654;BMP280;30790;52.030;7.110;2022-10-18T14:48:21;102032.31;;;20.37
41654;BMP280;30790;52.030;7.110;2022-10-18T14:50:53;102031.28;;;20.38
41654;BMP280;30790;52.030;7.110;2022-10-18T14:53:26;102020.81;;;20.29
41654;BMP280;30790;52.030;7.110;2022-10-18T14:55:57;102026.47;;;20.34
41654;BMP280;30790;52.030;7.110;2022-10-18T14:58:25;102041.78;;;20.35
41654;BMP280;30790;52.030;7.110;2022-10-18T15:00:51;102043.84;;;20.40
41654;BMP280;30790;52.030;7.110;2022-10-18T15:03:18;102038.84;;;20.36
41654;BMP280;30790;52.030;7.110;2022-10-18T15:05:55;102043.47;;;20.36
41654;BMP280;30790;52.030;7.110;2022-10-18T15:08:24;102048.47;;;20.39
41654;BMP280;30790;52.030;7.110;2022-10-18T15:10:51;102045.56;;;20.34
41654;BMP280;30790;52.030;7.110;2022-10-18T15:13:16;102043.88;;;20.33
41654;BMP280;30790;52.030;7.110;2022-10-18T15:15:43;102043.88;;;20.33
41654;BMP280;30790;52.030;7.110;2022-10-18T15:18:19;102048.47;;;20.39
41654;BMP280;30790;52.030;7.110;2022-10-18T15:21:05;102043.03;;;20.39
41654;BMP280;30790;52.030;7.110;2022-10-18T15:23:31;102038.44;;;20.33
41654;BMP280;30790;52.030;7.110;2022-10-18T15:26:03;102041.78;;;20.35
41654;BMP280;30790;52.030;7.110;2022-10-18T15:28:35;102045.13;;;20.37
41654;BMP280;30790;52.030;7.110;2022-10-18T15:31:02;102038.22;;;20.34
41654;BMP280;30790;52.030;7.110;2022-10-18T15:33:29;102050.19;;;20.40
41654;BMP280;30790;52.030;7.110;2022-10-18T15:36:08;102053.09;;;20.38
41654;BMP280;30790;52.030;7.110;2022-10-18T15:38:34;102044.50;;;20.35
41654;BMP280;30790;52.030;7.110;2022-10-18T15:41:01;102053.94;;;20.39
41654;BMP280;30790;52.030;7.110;2022-10-18T15:45:57;102048.28;;;20.34
41654;BMP280;30790;52.030;7.110;2022-10-18T15:48:30;102053.13;;;20.32
41654;BMP280;30790;52.030;7.110;2022-10-18T15:50:58;102069.06;;;20.35
41654;BMP280;30790;52.030;7.110;2022-10-18T15:55:57;102048.09;;;20.29
41654;BMP280;30790;52.030;7.110;2022-10-18T15:58:38;102050.81;;;20.29
41654;BMP280;30790;52.030;7.110;2022-10-18T16:01:07;102062.34;;;20.31
41654;BMP280;30790;52.030;7.110;2022-10-18T16:03:38;102046.41;;;20.28
41654;BMP280;30790;52.030;7.110;2022-10-18T16:06:09;102051.22;;;20.26
41654;BMP280;30790;52.030;7.110;2022-10-18T16:08:41;102053.13;;;20.25
41654;BMP280;30790;52.030;7.110;2022-10-18T16:11:12;102062.34;;;20.24